Corpus Christi, TX

7:39 PM CDT on August 16, 2017 (GMT -0500)
Harbor Village | | Change Station

Elev 26 ft 27.69 °N, 97.32 °W | Updated 14 seconds ago

Scattered Clouds
Scattered Clouds
86.4 °F
Feels Like 97 °F
N
13.0
Wind Variable Wind from SE
Gusts 25.0 mph

Today
High -- | Low -- °F
--% Chance of Precip.
Yesterday
High -- | Low -- °F
Precip. -- in
Pressure 29.90 in
Visibility 7.0 miles
Clouds Scattered Clouds 1700 ft
Heat Index 97 °F
Dew Point 76 °F
Humidity 71%
Rainfall 0.00 in
Snow Depth Not available.
7:00 AM 8:06 PM
Waning Crescent, 28% visible
METAR KNGP 162356Z 15017KT 7SM SCT017 32/27 A2990 RMK AO2 PK WND 15027/2309 SLP124 T03170267 10356 20317 55002
Pressure 29.90 in
Visibility 7.0 miles
Clouds Scattered Clouds 1700 ft
Heat Index 97 °F
Dew Point 76 °F
Humidity 71%
Rainfall 0.00 in
Snow Depth Not available.
7:00 AM 8:06 PM
Waning Crescent, 28% visible
METAR KNGP 162356Z 15017KT 7SM SCT017 32/27 A2990 RMK AO2 PK WND 15027/2309 SLP124 T03170267 10356 20317 55002

Get Severe Weather Alerts

Thanks for signing up!

Be on the lookout for a verification email in your inbox.

You'll start receiving the daily forecast at 6 AM.

×

10-Day Weather Forecast

Almanac

Astronomy

Aug. 16, 2017 Rise Set
Actual Time
Civil Twilight
Nautical Twilight
Astronomical Twilight
Moon
Length of Visible Light
Length of Day
Tomorrow will be .
, % of the Moon is Illuminated

Today's Extremes

State Highs State Lows

Community

WunderPhotos

Category 6

Welcome to Category 6. This is the collective home for Weather Underground's featured writeups by Dr. Jeff Masters (right), Bob Henson (left), Chris Burt, and other regular contributors.

Nearby

Air Quality

  Air Quality AQ Index Pollutant
Not available.

Snow Depth

Station Depth Elevation

Earthquake Activity

City Distance Mag. Time & Date
Minimum magnitude displayed is 2.5.

Coastal Water Temperatures

Place Temperature

Stations

Nearby Weather Stations

Station Location Temp. Windchill Dew Point Humidity Wind Precip. Elev Updated Type
                   

Watches & Warnings

There are currently no watches in effect.